Terminal Aerodrome Forecast
Issued by NWS

Home | Current Version | Previous Version | Text Only | Print | Product List | Glossary On
Versions: 1 2 3 4 5 6 7 8 9 10 11 12 13 14 15 16 17 18 19 20 21 22 23 24 25 26 27
720
FTUS42 KKEY 070845 AAA
TAFMTH
TAF AMD
KMTH 070845Z 0709/0806 33012G20KT P6SM VCSH SCT012 BKN050 OVC060
     FM071300 34016G24KT P6SM FEW022 OVC060
     FM071900 33013G19KT P6SM FEW022=

USA.gov is the U.S. government's official web portal to all federal, state and local government web resources and services.